sensor_id;sensor_type;location;lat;lon;timestamp;pressure;altitude;pressure_sealevel;temperature;humidity
3917;BME280;1973;50.518;7.318;2023-12-20T00:01:05;100866.41;;;7.82;100.00
3917;BME280;1973;50.518;7.318;2023-12-20T00:03:31;100861.78;;;7.83;100.00
3917;BME280;1973;50.518;7.318;2023-12-20T00:06:08;100866.41;;;7.82;100.00
3917;BME280;1973;50.518;7.318;2023-12-20T00:08:34;100854.59;;;7.82;100.00
3917;BME280;1973;50.518;7.318;2023-12-20T00:11:01;100871.06;;;7.82;100.00
3917;BME280;1973;50.518;7.318;2023-12-20T00:13:27;100858.38;;;7.81;100.00
3917;BME280;1973;50.518;7.318;2023-12-20T00:15:54;100855.00;;;7.79;100.00
3917;BME280;1973;50.518;7.318;2023-12-20T00:18:21;100853.31;;;7.78;100.00
3917;BME280;1973;50.518;7.318;2023-12-20T00:20:47;100856.03;;;7.78;100.00
3917;BME280;1973;50.518;7.318;2023-12-20T00:23:14;100846.13;;;7.77;100.00
3917;BME280;1973;50.518;7.318;2023-12-20T00:25:40;100832.41;;;7.77;100.00
3917;BME280;1973;50.518;7.318;2023-12-20T00:28:07;100846.97;;;7.77;100.00
3917;BME280;1973;50.518;7.318;2023-12-20T00:30:33;100857.94;;;7.77;100.00
3917;BME280;1973;50.518;7.318;2023-12-20T00:33:00;100864.25;;;7.78;100.00
3917;BME280;1973;50.518;7.318;2023-12-20T00:35:27;100852.44;;;7.77;100.00
3917;BME280;1973;50.518;7.318;2023-12-20T00:37:53;100846.97;;;7.77;100.00
3917;BME280;1973;50.518;7.318;2023-12-20T00:40:20;100843.38;;;7.77;100.00
3917;BME280;1973;50.518;7.318;2023-12-20T00:42:47;100848.84;;;7.77;100.00
3917;BME280;1973;50.518;7.318;2023-12-20T00:45:14;100856.03;;;7.78;100.00
3917;BME280;1973;50.518;7.318;2023-12-20T00:47:41;100845.06;;;7.78;100.00
3917;BME280;1973;50.518;7.318;2023-12-20T00:50:09;100853.31;;;7.78;100.00
3917;BME280;1973;50.518;7.318;2023-12-20T00:52:35;100847.63;;;7.79;100.00
3917;BME280;1973;50.518;7.318;2023-12-20T00:55:03;100849.53;;;7.79;100.00
3917;BME280;1973;50.518;7.318;2023-12-20T00:57:30;100842.34;;;7.78;100.00
3917;BME280;1973;50.518;7.318;2023-12-20T00:59:57;100846.13;;;7.77;100.00
3917;BME280;1973;50.518;7.318;2023-12-20T01:02:24;100837.03;;;7.76;100.00
3917;BME280;1973;50.518;7.318;2023-12-20T01:04:50;100833.47;;;7.76;100.00
3917;BME280;1973;50.518;7.318;2023-12-20T01:07:17;100834.50;;;7.75;100.00
3917;BME280;1973;50.518;7.318;2023-12-20T01:09:44;100846.50;;;7.74;100.00
3917;BME280;1973;50.518;7.318;2023-12-20T01:12:10;100844.81;;;7.73;100.00
3917;BME280;1973;50.518;7.318;2023-12-20T01:14:37;100836.81;;;7.71;100.00
3917;BME280;1973;50.518;7.318;2023-12-20T01:17:05;100839.72;;;7.70;100.00
3917;BME280;1973;50.518;7.318;2023-12-20T01:19:32;100837.19;;;7.68;100.00
3917;BME280;1973;50.518;7.318;2023-12-20T01:21:59;100833.59;;;7.68;100.00
3917;BME280;1973;50.518;7.318;2023-12-20T01:24:25;100852.78;;;7.68;100.00
3917;BME280;1973;50.518;7.318;2023-12-20T01:26:52;100843.50;;;7.69;100.00
3917;BME280;1973;50.518;7.318;2023-12-20T01:29:18;100848.97;;;7.69;100.00
3917;BME280;1973;50.518;7.318;2023-12-20T01:31:45;100851.94;;;7.67;100.00
3917;BME280;1973;50.518;7.318;2023-12-20T01:34:12;100852.78;;;7.68;100.00
3917;BME280;1973;50.518;7.318;2023-12-20T01:36:39;100852.56;;;7.69;100.00
3917;BME280;1973;50.518;7.318;2023-12-20T01:39:05;100853.44;;;7.70;100.00
3917;BME280;1973;50.518;7.318;2023-12-20T01:41:50;100850.50;;;7.71;100.00
3917;BME280;1973;50.518;7.318;2023-12-20T01:44:16;100859.56;;;7.72;100.00
3917;BME280;1973;50.518;7.318;2023-12-20T01:46:43;100858.50;;;7.73;100.00
3917;BME280;1973;50.518;7.318;2023-12-20T01:49:10;100870.53;;;7.72;100.00
3917;BME280;1973;50.518;7.318;2023-12-20T01:51:36;100874.94;;;7.73;100.00
3917;BME280;1973;50.518;7.318;2023-12-20T01:54:03;100874.94;;;7.73;100.00
3917;BME280;1973;50.518;7.318;2023-12-20T01:56:31;100872.22;;;7.73;100.00
3917;BME280;1973;50.518;7.318;2023-12-20T01:58:58;100873.06;;;7.73;100.00
3917;BME280;1973;50.518;7.318;2023-12-20T02:01:27;100890.34;;;7.74;100.00
3917;BME280;1973;50.518;7.318;2023-12-20T02:03:55;100882.13;;;7.74;100.00
3917;BME280;1973;50.518;7.318;2023-12-20T02:06:23;100880.25;;;7.74;100.00
3917;BME280;1973;50.518;7.318;2023-12-20T02:08:51;100880.44;;;7.73;100.00
3917;BME280;1973;50.518;7.318;2023-12-20T02:11:17;100883.16;;;7.73;100.00
3917;BME280;1973;50.518;7.318;2023-12-20T02:13:44;100892.25;;;7.73;100.00
3917;BME280;1973;50.518;7.318;2023-12-20T02:16:11;100895.84;;;7.74;100.00
3917;BME280;1973;50.518;7.318;2023-12-20T02:18:37;100884.88;;;7.74;100.00
3917;BME280;1973;50.518;7.318;2023-12-20T02:21:05;100881.09;;;7.75;100.00
3917;BME280;1973;50.518;7.318;2023-12-20T02:23:32;100879.84;;;7.77;100.00
3917;BME280;1973;50.518;7.318;2023-12-20T02:25:58;100881.34;;;7.80;100.00
3917;BME280;1973;50.518;7.318;2023-12-20T02:28:25;100883.91;;;7.81;100.00
3917;BME280;1973;50.518;7.318;2023-12-20T02:30:52;100897.41;;;7.83;100.00
3917;BME280;1973;50.518;7.318;2023-12-20T02:33:19;100895.31;;;7.85;100.00
3917;BME280;1973;50.518;7.318;2023-12-20T02:35:46;100897.22;;;7.84;100.00
3917;BME280;1973;50.518;7.318;2023-12-20T02:38:12;100908.16;;;7.84;100.00
3917;BME280;1973;50.518;7.318;2023-12-20T02:40:39;100909.03;;;7.85;100.00
3917;BME280;1973;50.518;7.318;2023-12-20T02:43:05;100910.34;;;7.89;100.00
3917;BME280;1973;50.518;7.318;2023-12-20T02:45:32;100921.28;;;7.89;100.00
3917;BME280;1973;50.518;7.318;2023-12-20T02:47:58;100909.47;;;7.89;100.00
3917;BME280;1973;50.518;7.318;2023-12-20T02:50:25;100930.38;;;7.90;100.00
3917;BME280;1973;50.518;7.318;2023-12-20T02:52:51;100924.03;;;7.89;100.00
3917;BME280;1973;50.518;7.318;2023-12-20T02:55:18;100957.72;;;7.83;100.00
3917;BME280;1973;50.518;7.318;2023-12-20T02:57:44;100959.66;;;7.68;100.00
3917;BME280;1973;50.518;7.318;2023-12-20T03:00:12;100954.34;;;7.66;100.00
3917;BME280;1973;50.518;7.318;2023-12-20T03:02:38;100967.19;;;7.66;100.00
3917;BME280;1973;50.518;7.318;2023-12-20T03:05:05;100952.84;;;7.64;100.00
3917;BME280;1973;50.518;7.318;2023-12-20T03:07:32;100964.66;;;7.64;100.00
3917;BME280;1973;50.518;7.318;2023-12-20T03:09:59;100974.09;;;7.62;100.00
3917;BME280;1973;50.518;7.318;2023-12-20T03:12:44;100970.44;;;7.55;100.00
3917;BME280;1973;50.518;7.318;2023-12-20T03:15:11;100971.50;;;7.54;100.00
3917;BME280;1973;50.518;7.318;2023-12-20T03:17:37;100969.31;;;7.49;100.00
3917;BME280;1973;50.518;7.318;2023-12-20T03:20:05;100977.25;;;7.44;100.00
3917;BME280;1973;50.518;7.318;2023-12-20T03:22:31;100983.97;;;7.42;100.00
3917;BME280;1973;50.518;7.318;2023-12-20T03:24:58;100974.44;;;7.38;100.00
3917;BME280;1973;50.518;7.318;2023-12-20T03:27:25;100971.88;;;7.36;100.00
3917;BME280;1973;50.518;7.318;2023-12-20T03:29:51;100970.75;;;7.30;100.00
3917;BME280;1973;50.518;7.318;2023-12-20T03:32:18;100968.88;;;7.31;100.00
3917;BME280;1973;50.518;7.318;2023-12-20T03:34:44;100971.78;;;7.29;100.00
3917;BME280;1973;50.518;7.318;2023-12-20T03:37:11;100957.91;;;7.31;100.00
3917;BME280;1973;50.518;7.318;2023-12-20T03:39:37;100967.00;;;7.31;100.00
3917;BME280;1973;50.518;7.318;2023-12-20T03:42:04;100969.50;;;7.33;100.00
3917;BME280;1973;50.518;7.318;2023-12-20T03:44:30;100973.09;;;7.33;100.00
3917;BME280;1973;50.518;7.318;2023-12-20T03:46:57;100975.47;;;7.37;100.00
3917;BME280;1973;50.518;7.318;2023-12-20T03:49:23;100970.84;;;7.37;100.00
3917;BME280;1973;50.518;7.318;2023-12-20T03:51:50;100967.94;;;7.39;100.00
3917;BME280;1973;50.518;7.318;2023-12-20T03:54:17;100967.06;;;7.38;100.00
3917;BME280;1973;50.518;7.318;2023-12-20T03:56:43;100965.19;;;7.39;100.00
3917;BME280;1973;50.518;7.318;2023-12-20T03:59:10;100958.00;;;7.38;100.00
3917;BME280;1973;50.518;7.318;2023-12-20T04:01:36;100953.56;;;7.37;100.00
3917;BME280;1973;50.518;7.318;2023-12-20T04:04:03;100959.88;;;7.37;100.00
3917;BME280;1973;50.518;7.318;2023-12-20T04:06:30;100962.81;;;7.35;100.00
3917;BME280;1973;50.518;7.318;2023-12-20T04:08:56;100955.25;;;7.38;100.00
3917;BME280;1973;50.518;7.318;2023-12-20T04:11:23;100961.59;;;7.38;100.00
3917;BME280;1973;50.518;7.318;2023-12-20T04:13:49;100955.25;;;7.38;100.00
3917;BME280;1973;50.518;7.318;2023-12-20T04:16:16;100959.25;;;7.35;100.00
3917;BME280;1973;50.518;7.318;2023-12-20T04:18:42;100964.50;;;7.37;100.00
3917;BME280;1973;50.518;7.318;2023-12-20T04:21:09;100957.31;;;7.35;100.00
3917;BME280;1973;50.518;7.318;2023-12-20T04:23:36;100971.69;;;7.38;100.00
3917;BME280;1973;50.518;7.318;2023-12-20T04:26:02;100965.19;;;7.39;100.00
3917;BME280;1973;50.518;7.318;2023-12-20T04:28:29;100973.19;;;7.40;100.00
3917;BME280;1973;50.518;7.318;2023-12-20T04:30:58;100967.53;;;7.42;100.00
3917;BME280;1973;50.518;7.318;2023-12-20T04:33:25;100962.91;;;7.42;100.00
3917;BME280;1973;50.518;7.318;2023-12-20T04:35:52;100971.78;;;7.44;100.00
3917;BME280;1973;50.518;7.318;2023-12-20T04:38:18;100969.25;;;7.43;100.00
3917;BME280;1973;50.518;7.318;2023-12-20T04:40:45;100969.25;;;7.43;100.00
3917;BME280;1973;50.518;7.318;2023-12-20T04:43:11;100968.75;;;7.39;100.00
3917;BME280;1973;50.518;7.318;2023-12-20T04:45:38;100977.81;;;7.40;100.00
3917;BME280;1973;50.518;7.318;2023-12-20T04:48:05;100975.94;;;7.40;100.00
3917;BME280;1973;50.518;7.318;2023-12-20T04:50:32;100984.34;;;7.39;100.00
3917;BME280;1973;50.518;7.318;2023-12-20T04:52:59;100975.06;;;7.40;100.00
3917;BME280;1973;50.518;7.318;2023-12-20T04:55:26;100979.69;;;7.39;100.00
3917;BME280;1973;50.518;7.318;2023-12-20T04:57:52;100974.91;;;7.41;100.00
3917;BME280;1973;50.518;7.318;2023-12-20T05:00:19;100974.72;;;7.43;100.00
3917;BME280;1973;50.518;7.318;2023-12-20T05:02:45;100974.91;;;7.41;100.00
3917;BME280;1973;50.518;7.318;2023-12-20T05:05:12;100970.28;;;7.42;100.00
3917;BME280;1973;50.518;7.318;2023-12-20T05:07:39;100974.03;;;7.41;100.00
3917;BME280;1973;50.518;7.318;2023-12-20T05:10:06;100972.16;;;7.41;100.00
3917;BME280;1973;50.518;7.318;2023-12-20T05:12:34;100973.00;;;7.42;100.00
3917;BME280;1973;50.518;7.318;2023-12-20T05:15:01;100982.66;;;7.38;100.00
3917;BME280;1973;50.518;7.318;2023-12-20T05:17:27;100974.22;;;7.39;100.00
3917;BME280;1973;50.518;7.318;2023-12-20T05:19:54;100979.69;;;7.39;100.00
3917;BME280;1973;50.518;7.318;2023-12-20T05:22:20;100984.34;;;7.39;100.00
3917;BME280;1973;50.518;7.318;2023-12-20T05:24:48;100974.03;;;7.41;100.00
3917;BME280;1973;50.518;7.318;2023-12-20T05:27:14;100980.19;;;7.43;100.00
3917;BME280;1973;50.518;7.318;2023-12-20T05:29:41;100973.47;;;7.45;100.00
3917;BME280;1973;50.518;7.318;2023-12-20T05:32:07;100978.09;;;7.45;100.00
3917;BME280;1973;50.518;7.318;2023-12-20T05:34:33;100968.00;;;7.45;100.00
3917;BME280;1973;50.518;7.318;2023-12-20T05:37:00;100967.78;;;7.47;100.00
3917;BME280;1973;50.518;7.318;2023-12-20T05:39:28;100976.88;;;7.47;100.00
3917;BME280;1973;50.518;7.318;2023-12-20T05:41:54;100978.75;;;7.47;100.00
3917;BME280;1973;50.518;7.318;2023-12-20T05:44:21;100979.81;;;7.46;100.00
3917;BME280;1973;50.518;7.318;2023-12-20T05:46:48;100983.59;;;7.45;100.00
3917;BME280;1973;50.518;7.318;2023-12-20T05:49:14;100978.09;;;7.45;100.00
3917;BME280;1973;50.518;7.318;2023-12-20T05:51:41;100973.88;;;7.42;100.00
3917;BME280;1973;50.518;7.318;2023-12-20T05:54:09;100978.88;;;7.39;100.00
3917;BME280;1973;50.518;7.318;2023-12-20T05:56:35;100973.75;;;7.35;100.00
3917;BME280;1973;50.518;7.318;2023-12-20T05:59:02;100993.53;;;7.31;100.00
3917;BME280;1973;50.518;7.318;2023-12-20T06:01:29;100982.44;;;7.24;100.00
3917;BME280;1973;50.518;7.318;2023-12-20T06:03:56;100985.09;;;7.18;100.00
3917;BME280;1973;50.518;7.318;2023-12-20T06:06:23;100982.28;;;7.11;100.00
3917;BME280;1973;50.518;7.318;2023-12-20T06:08:50;100988.50;;;7.05;100.00
3917;BME280;1973;50.518;7.318;2023-12-20T06:11:17;100984.63;;;7.00;100.00
3917;BME280;1973;50.518;7.318;2023-12-20T06:13:43;100988.31;;;6.92;100.00
3917;BME280;1973;50.518;7.318;2023-12-20T06:16:10;100989.72;;;6.88;100.00
3917;BME280;1973;50.518;7.318;2023-12-20T06:18:37;100991.13;;;6.84;100.00
3917;BME280;1973;50.518;7.318;2023-12-20T06:21:04;100994.91;;;6.83;100.00
3917;BME280;1973;50.518;7.318;2023-12-20T06:23:30;100993.19;;;6.82;100.00
3917;BME280;1973;50.518;7.318;2023-12-20T06:25:57;100991.50;;;6.81;100.00
3917;BME280;1973;50.518;7.318;2023-12-20T06:28:24;100996.97;;;6.81;100.00
3917;BME280;1973;50.518;7.318;2023-12-20T06:30:50;101002.44;;;6.81;100.00
3917;BME280;1973;50.518;7.318;2023-12-20T06:33:19;101001.78;;;6.79;100.00
3917;BME280;1973;50.518;7.318;2023-12-20T06:35:48;101005.72;;;6.76;100.00
3917;BME280;1973;50.518;7.318;2023-12-20T06:38:14;100999.59;;;6.74;100.00
3917;BME280;1973;50.518;7.318;2023-12-20T06:40:41;101002.88;;;6.70;100.00
3917;BME280;1973;50.518;7.318;2023-12-20T06:43:09;100995.06;;;6.67;100.00
3917;BME280;1973;50.518;7.318;2023-12-20T06:45:49;101004.03;;;6.61;100.00
3917;BME280;1973;50.518;7.318;2023-12-20T06:48:16;101010.88;;;6.57;100.00
3917;BME280;1973;50.518;7.318;2023-12-20T06:50:44;101005.78;;;6.54;100.00
3917;BME280;1973;50.518;7.318;2023-12-20T06:53:10;101016.03;;;6.52;100.00
3917;BME280;1973;50.518;7.318;2023-12-20T06:55:37;101012.66;;;6.50;100.00
3917;BME280;1973;50.518;7.318;2023-12-20T06:58:04;101017.28;;;6.49;100.00
3917;BME280;1973;50.518;7.318;2023-12-20T07:00:32;101013.69;;;6.49;100.00
3917;BME280;1973;50.518;7.318;2023-12-20T07:02:59;101017.44;;;6.48;100.00
3917;BME280;1973;50.518;7.318;2023-12-20T07:05:25;101009.25;;;6.48;100.00
3917;BME280;1973;50.518;7.318;2023-12-20T07:07:53;101009.06;;;6.49;100.00
3917;BME280;1973;50.518;7.318;2023-12-20T07:10:20;101013.69;;;6.49;100.00
3917;BME280;1973;50.518;7.318;2023-12-20T07:12:46;101019.16;;;6.49;100.00
3917;BME280;1973;50.518;7.318;2023-12-20T07:15:15;101020.19;;;6.48;100.00
3917;BME280;1973;50.518;7.318;2023-12-20T07:17:41;101016.25;;;6.50;100.00
3917;BME280;1973;50.518;7.318;2023-12-20T07:20:09;101014.00;;;6.54;100.00
3917;BME280;1973;50.518;7.318;2023-12-20T07:22:37;101011.91;;;6.56;100.00
3917;BME280;1973;50.518;7.318;2023-12-20T07:25:04;101023.16;;;6.61;100.00
3917;BME280;1973;50.518;7.318;2023-12-20T07:27:31;101013.91;;;6.62;100.00
3917;BME280;1973;50.518;7.318;2023-12-20T07:29:57;101015.44;;;6.64;100.00
3917;BME280;1973;50.518;7.318;2023-12-20T07:32:24;101021.75;;;6.65;100.00
3917;BME280;1973;50.518;7.318;2023-12-20T07:34:50;101024.50;;;6.65;100.00
3917;BME280;1973;50.518;7.318;2023-12-20T07:37:17;101016.47;;;6.63;100.00
3917;BME280;1973;50.518;7.318;2023-12-20T07:39:44;101013.56;;;6.65;100.00
3917;BME280;1973;50.518;7.318;2023-12-20T07:42:10;101018.34;;;6.63;100.00
3917;BME280;1973;50.518;7.318;2023-12-20T07:44:37;101022.09;;;6.62;100.00
3917;BME280;1973;50.518;7.318;2023-12-20T07:47:04;101026.38;;;6.64;100.00
3917;BME280;1973;50.518;7.318;2023-12-20T07:49:31;101026.56;;;6.63;100.00
3917;BME280;1973;50.518;7.318;2023-12-20T07:51:58;101023.44;;;6.66;100.00
3917;BME280;1973;50.518;7.318;2023-12-20T07:54:25;101022.41;;;6.67;100.00
3917;BME280;1973;50.518;7.318;2023-12-20T07:56:51;101027.03;;;6.66;100.00
3917;BME280;1973;50.518;7.318;2023-12-20T07:59:18;101037.13;;;6.66;100.00
3917;BME280;1973;50.518;7.318;2023-12-20T08:01:57;101034.22;;;6.67;100.00
3917;BME280;1973;50.518;7.318;2023-12-20T08:04:24;101036.56;;;6.70;100.00
3917;BME280;1973;50.518;7.318;2023-12-20T08:06:51;101040.16;;;6.71;100.00
3917;BME280;1973;50.518;7.318;2023-12-20T08:09:18;101054.50;;;6.73;100.00
3917;BME280;1973;50.518;7.318;2023-12-20T08:11:46;101051.59;;;6.74;100.00
3917;BME280;1973;50.518;7.318;2023-12-20T08:14:13;101047.81;;;6.75;100.00
3917;BME280;1973;50.518;7.318;2023-12-20T08:16:39;101046.59;;;6.78;100.00
3917;BME280;1973;50.518;7.318;2023-12-20T08:19:06;101043.84;;;6.78;100.00
3917;BME280;1973;50.518;7.318;2023-12-20T08:21:33;101045.19;;;6.82;100.00
3917;BME280;1973;50.518;7.318;2023-12-20T08:24:04;101045.84;;;6.84;100.00
3917;BME280;1973;50.518;7.318;2023-12-20T08:26:31;101047.38;;;6.87;100.00
3917;BME280;1973;50.518;7.318;2023-12-20T08:28:57;101049.75;;;6.90;100.00
3917;BME280;1973;50.518;7.318;2023-12-20T08:31:27;101051.25;;;6.92;100.00
3917;BME280;1973;50.518;7.318;2023-12-20T08:33:53;101043.72;;;6.94;100.00
3917;BME280;1973;50.518;7.318;2023-12-20T08:36:21;101048.13;;;6.95;100.00
3917;BME280;1973;50.518;7.318;2023-12-20T08:38:49;101048.59;;;6.99;100.00
3917;BME280;1973;50.518;7.318;2023-12-20T08:41:16;101061.25;;;7.00;100.00
3917;BME280;1973;50.518;7.318;2023-12-20T08:43:44;101061.75;;;7.03;100.00
3917;BME280;1973;50.518;7.318;2023-12-20T08:46:10;101047.31;;;7.09;100.00
3917;BME280;1973;50.518;7.318;2023-12-20T08:48:38;101044.38;;;7.11;100.00
3917;BME280;1973;50.518;7.318;2023-12-20T08:51:05;101045.53;;;7.16;100.00
3917;BME280;1973;50.518;7.318;2023-12-20T08:53:33;101039.13;;;7.24;100.00
3917;BME280;1973;50.518;7.318;2023-12-20T08:56:00;101034.78;;;7.29;100.00
3917;BME280;1973;50.518;7.318;2023-12-20T08:58:28;101036.28;;;7.32;100.00
3917;BME280;1973;50.518;7.318;2023-12-20T09:00:55;101034.22;;;7.34;100.00
3917;BME280;1973;50.518;7.318;2023-12-20T09:03:22;101028.66;;;7.42;100.00
3917;BME280;1973;50.518;7.318;2023-12-20T09:05:48;101022.78;;;7.45;100.00
3917;BME280;1973;50.518;7.318;2023-12-20T09:08:15;101016.06;;;7.48;100.00
3917;BME280;1973;50.518;7.318;2023-12-20T09:10:41;101019.09;;;7.53;100.00
3917;BME280;1973;50.518;7.318;2023-12-20T09:13:08;101017.00;;;7.55;100.00
3917;BME280;1973;50.518;7.318;2023-12-20T09:15:35;101021.06;;;7.59;100.00
3917;BME280;1973;50.518;7.318;2023-12-20T09:18:03;101028.53;;;7.65;100.00
3917;BME280;1973;50.518;7.318;2023-12-20T09:20:30;101021.25;;;7.72;100.00
3917;BME280;1973;50.518;7.318;2023-12-20T09:23:05;101021.13;;;7.80;100.00
3917;BME280;1973;50.518;7.318;2023-12-20T09:25:31;101024.13;;;7.85;100.00
3917;BME280;1973;50.518;7.318;2023-12-20T09:27:58;101022.78;;;7.96;100.00
3917;BME280;1973;50.518;7.318;2023-12-20T09:30:25;101026.91;;;8.06;100.00
3917;BME280;1973;50.518;7.318;2023-12-20T09:32:59;101024.97;;;8.21;100.00
3917;BME280;1973;50.518;7.318;2023-12-20T09:35:26;101029.56;;;8.36;100.00
3917;BME280;1973;50.518;7.318;2023-12-20T09:37:53;101026.97;;;8.49;100.00
3917;BME280;1973;50.518;7.318;2023-12-20T09:40:20;101027.03;;;8.55;100.00
3917;BME280;1973;50.518;7.318;2023-12-20T09:43:08;101023.03;;;8.58;100.00
3917;BME280;1973;50.518;7.318;2023-12-20T09:45:35;101017.41;;;8.66;100.00
3917;BME280;1973;50.518;7.318;2023-12-20T09:48:03;101023.28;;;8.84;100.00
3917;BME280;1973;50.518;7.318;2023-12-20T09:50:31;101014.81;;;9.13;100.00
3917;BME280;1973;50.518;7.318;2023-12-20T09:53:01;101010.53;;;9.39;100.00
3917;BME280;1973;50.518;7.318;2023-12-20T09:55:30;101019.13;;;9.57;100.00
3917;BME280;1973;50.518;7.318;2023-12-20T09:57:59;100999.53;;;9.73;100.00
3917;BME280;1973;50.518;7.318;2023-12-20T10:00:26;101015.66;;;9.83;100.00
3917;BME280;1973;50.518;7.318;2023-12-20T10:02:59;101016.88;;;9.73;100.00
3917;BME280;1973;50.518;7.318;2023-12-20T10:05:31;101011.22;;;9.88;100.00
3917;BME280;1973;50.518;7.318;2023-12-20T10:08:00;101012.69;;;9.91;100.00
3917;BME280;1973;50.518;7.318;2023-12-20T10:10:28;101015.25;;;9.92;100.00
3917;BME280;1973;50.518;7.318;2023-12-20T10:13:12;101010.19;;;9.96;100.00
3917;BME280;1973;50.518;7.318;2023-12-20T10:15:39;101005.09;;;9.86;100.00
3917;BME280;1973;50.518;7.318;2023-12-20T10:18:08;101002.84;;;9.62;100.00
3917;BME280;1973;50.518;7.318;2023-12-20T10:20:36;100993.56;;;9.63;100.00
3917;BME280;1973;50.518;7.318;2023-12-20T10:23:03;100997.09;;;9.50;100.00
3917;BME280;1973;50.518;7.318;2023-12-20T10:25:31;100990.06;;;9.41;100.00
3917;BME280;1973;50.518;7.318;2023-12-20T10:28:11;101005.03;;;9.32;100.00
3917;BME280;1973;50.518;7.318;2023-12-20T10:30:39;101001.22;;;9.33;100.00
3917;BME280;1973;50.518;7.318;2023-12-20T10:33:07;101003.13;;;9.33;100.00
3917;BME280;1973;50.518;7.318;2023-12-20T10:35:39;101001.63;;;9.30;100.00
3917;BME280;1973;50.518;7.318;2023-12-20T10:38:11;100999.75;;;9.31;100.00
3917;BME280;1973;50.518;7.318;2023-12-20T10:40:40;100987.88;;;9.23;100.00
3917;BME280;1973;50.518;7.318;2023-12-20T10:43:08;100986.59;;;9.26;100.00
3917;BME280;1973;50.518;7.318;2023-12-20T10:45:35;100982.13;;;9.18;100.00
3917;BME280;1973;50.518;7.318;2023-12-20T10:48:02;100986.78;;;9.24;100.00
3917;BME280;1973;50.518;7.318;2023-12-20T10:50:31;100985.69;;;9.12;100.00
3917;BME280;1973;50.518;7.318;2023-12-20T10:52:58;100974.88;;;9.11;100.00
3917;BME280;1973;50.518;7.318;2023-12-20T10:55:26;100975.53;;;9.13;100.00
3917;BME280;1973;50.518;7.318;2023-12-20T10:58:08;100973.16;;;9.03;100.00
3917;BME280;1973;50.518;7.318;2023-12-20T11:00:43;100971.88;;;9.06;100.00
3917;BME280;1973;50.518;7.318;2023-12-20T11:03:12;100983.72;;;9.06;100.00
3917;BME280;1973;50.518;7.318;2023-12-20T11:06:05;100971.66;;;9.01;100.00
3917;BME280;1973;50.518;7.318;2023-12-20T11:08:49;100982.41;;;8.96;100.00
3917;BME280;1973;50.518;7.318;2023-12-20T11:11:28;100967.41;;;8.98;100.00
3917;BME280;1973;50.518;7.318;2023-12-20T11:14:02;100974.19;;;9.02;100.00
3917;BME280;1973;50.518;7.318;2023-12-20T11:16:33;100957.34;;;9.05;100.00
3917;BME280;1973;50.518;7.318;2023-12-20T11:19:17;100957.34;;;9.05;100.00
3917;BME280;1973;50.518;7.318;2023-12-20T11:21:46;100944.88;;;9.09;100.00
3917;BME280;1973;50.518;7.318;2023-12-20T11:24:12;100959.22;;;9.05;100.00
3917;BME280;1973;50.518;7.318;2023-12-20T11:26:47;100953.06;;;9.03;100.00
3917;BME280;1973;50.518;7.318;2023-12-20T11:29:33;100957.97;;;9.07;100.00
3917;BME280;1973;50.518;7.318;2023-12-20T11:32:02;100956.28;;;9.13;100.00
3917;BME280;1973;50.518;7.318;2023-12-20T11:34:32;100955.22;;;9.07;100.00
3917;BME280;1973;50.518;7.318;2023-12-20T11:37:00;100943.34;;;9.00;100.00
3917;BME280;1973;50.518;7.318;2023-12-20T11:39:30;100951.38;;;9.02;100.00
3917;BME280;1973;50.518;7.318;2023-12-20T11:41:57;100948.69;;;9.08;100.00
3917;BME280;1973;50.518;7.318;2023-12-20T11:44:25;100947.88;;;9.14;100.00
3917;BME280;1973;50.518;7.318;2023-12-20T11:46:53;100962.88;;;9.12;100.00
3917;BME280;1973;50.518;7.318;2023-12-20T11:49:23;100951.06;;;9.18;100.00
3917;BME280;1973;50.518;7.318;2023-12-20T11:51:50;100953.63;;;9.19;100.00
3917;BME280;1973;50.518;7.318;2023-12-20T11:54:18;100957.00;;;9.21;100.00
3917;BME280;1973;50.518;7.318;2023-12-20T11:56:44;100947.72;;;9.22;100.00
3917;BME280;1973;50.518;7.318;2023-12-20T11:59:11;100949.00;;;9.26;100.00
3917;BME280;1973;50.518;7.318;2023-12-20T12:01:49;100945.59;;;9.24;100.00
3917;BME280;1973;50.518;7.318;2023-12-20T12:04:17;100940.50;;;9.21;100.00
3917;BME280;1973;50.518;7.318;2023-12-20T12:06:44;100947.72;;;9.22;100.00
3917;BME280;1973;50.518;7.318;2023-12-20T12:09:12;100947.72;;;9.22;100.00
3917;BME280;1973;50.518;7.318;2023-12-20T12:11:39;100927.59;;;9.15;100.00
3917;BME280;1973;50.518;7.318;2023-12-20T12:14:07;100927.38;;;9.17;100.00
3917;BME280;1973;50.518;7.318;2023-12-20T12:16:33;100935.44;;;9.18;100.00
3917;BME280;1973;50.518;7.318;2023-12-20T12:19:00;100950.88;;;9.19;100.00
3917;BME280;1973;50.518;7.318;2023-12-20T12:21:27;100934.13;;;9.14;100.00
3917;BME280;1973;50.518;7.318;2023-12-20T12:24:09;100931.97;;;9.03;100.00
3917;BME280;1973;50.518;7.318;2023-12-20T12:26:36;100930.22;;;8.96;100.00
3917;BME280;1973;50.518;7.318;2023-12-20T12:29:02;100933.56;;;8.91;100.00
3917;BME280;1973;50.518;7.318;2023-12-20T12:31:30;100931.47;;;8.93;100.00
3917;BME280;1973;50.518;7.318;2023-12-20T12:33:57;100930.66;;;8.99;100.00
3917;BME280;1973;50.518;7.318;2023-12-20T12:36:23;100926.06;;;9.06;100.00
3917;BME280;1973;50.518;7.318;2023-12-20T12:38:50;100914.28;;;9.12;100.00
3917;BME280;1973;50.518;7.318;2023-12-20T12:41:17;100909.16;;;9.09;100.00
3917;BME280;1973;50.518;7.318;2023-12-20T12:43:44;100910.88;;;9.10;100.00
3917;BME280;1973;50.518;7.318;2023-12-20T12:46:10;100913.63;;;9.10;100.00
3917;BME280;1973;50.518;7.318;2023-12-20T12:48:37;100913.41;;;9.05;100.00
3917;BME280;1973;50.518;7.318;2023-12-20T12:51:06;100898.84;;;9.11;100.00
3917;BME280;1973;50.518;7.318;2023-12-20T12:53:39;100894.03;;;9.20;100.00
3917;BME280;1973;50.518;7.318;2023-12-20T12:56:06;100891.13;;;9.35;100.00
3917;BME280;1973;50.518;7.318;2023-12-20T12:58:32;100907.91;;;9.53;100.00
3917;BME280;1973;50.518;7.318;2023-12-20T13:00:59;100881.28;;;9.60;100.00
3917;BME280;1973;50.518;7.318;2023-12-20T13:03:26;100887.41;;;9.62;100.00
3917;BME280;1973;50.518;7.318;2023-12-20T13:05:52;100893.56;;;9.64;100.00
3917;BME280;1973;50.518;7.318;2023-12-20T13:08:19;100882.34;;;9.65;100.00
3917;BME280;1973;50.518;7.318;2023-12-20T13:10:45;100878.38;;;9.74;100.00
3917;BME280;1973;50.518;7.318;2023-12-20T13:13:12;100870.50;;;9.65;100.00